sensor_id;sensor_type;location;lat;lon;timestamp;P1;durP1;ratioP1;P2;durP2;ratioP2
3939;SDS011;1984;48.312;9.244;2023-09-12T00:01:19;9.47;;;5.47;;
3939;SDS011;1984;48.312;9.244;2023-09-12T00:03:44;12.00;;;5.63;;
3939;SDS011;1984;48.312;9.244;2023-09-12T00:06:10;18.20;;;6.50;;
3939;SDS011;1984;48.312;9.244;2023-09-12T00:08:35;9.93;;;6.23;;
3939;SDS011;1984;48.312;9.244;2023-09-12T00:11:07;7.47;;;5.87;;
3939;SDS011;1984;48.312;9.244;2023-09-12T00:13:40;13.83;;;6.10;;
3939;SDS011;1984;48.312;9.244;2023-09-12T00:16:06;9.00;;;6.03;;
3939;SDS011;1984;48.312;9.244;2023-09-12T00:18:34;13.10;;;6.20;;
3939;SDS011;1984;48.312;9.244;2023-09-12T00:21:00;11.83;;;6.10;;
3939;SDS011;1984;48.312;9.244;2023-09-12T00:23:26;8.73;;;5.97;;
3939;SDS011;1984;48.312;9.244;2023-09-12T00:25:52;14.17;;;5.87;;
3939;SDS011;1984;48.312;9.244;2023-09-12T00:28:18;13.23;;;5.60;;
3939;SDS011;1984;48.312;9.244;2023-09-12T00:30:44;11.57;;;6.13;;
3939;SDS011;1984;48.312;9.244;2023-09-12T00:33:09;11.23;;;6.47;;
3939;SDS011;1984;48.312;9.244;2023-09-12T00:35:35;11.60;;;7.47;;
3939;SDS011;1984;48.312;9.244;2023-09-12T00:38:01;18.10;;;7.90;;
3939;SDS011;1984;48.312;9.244;2023-09-12T00:40:26;20.23;;;8.57;;
3939;SDS011;1984;48.312;9.244;2023-09-12T00:42:52;14.43;;;7.57;;
3939;SDS011;1984;48.312;9.244;2023-09-12T00:45:17;12.40;;;5.90;;
3939;SDS011;1984;48.312;9.244;2023-09-12T00:47:43;9.27;;;6.23;;
3939;SDS011;1984;48.312;9.244;2023-09-12T00:50:09;13.10;;;7.23;;
3939;SDS011;1984;48.312;9.244;2023-09-12T00:52:35;10.00;;;5.80;;
3939;SDS011;1984;48.312;9.244;2023-09-12T00:55:03;13.60;;;7.43;;
3939;SDS011;1984;48.312;9.244;2023-09-12T00:57:29;16.40;;;6.23;;
3939;SDS011;1984;48.312;9.244;2023-09-12T00:59:56;10.03;;;6.07;;
3939;SDS011;1984;48.312;9.244;2023-09-12T01:02:23;23.97;;;7.00;;
3939;SDS011;1984;48.312;9.244;2023-09-12T01:04:49;13.27;;;6.07;;
3939;SDS011;1984;48.312;9.244;2023-09-12T01:07:15;16.60;;;6.83;;
3939;SDS011;1984;48.312;9.244;2023-09-12T01:09:41;7.43;;;5.53;;
3939;SDS011;1984;48.312;9.244;2023-09-12T01:12:07;10.20;;;6.97;;
3939;SDS011;1984;48.312;9.244;2023-09-12T01:14:33;10.03;;;6.33;;
3939;SDS011;1984;48.312;9.244;2023-09-12T01:16:59;16.83;;;5.47;;
3939;SDS011;1984;48.312;9.244;2023-09-12T01:19:26;12.57;;;6.23;;
3939;SDS011;1984;48.312;9.244;2023-09-12T01:27:46;17.10;;;6.50;;
3939;SDS011;1984;48.312;9.244;2023-09-12T01:30:14;11.70;;;6.23;;
3939;SDS011;1984;48.312;9.244;2023-09-12T01:32:42;9.07;;;6.20;;
3939;SDS011;1984;48.312;9.244;2023-09-12T01:35:09;13.60;;;6.40;;
3939;SDS011;1984;48.312;9.244;2023-09-12T01:37:34;12.23;;;5.80;;
3939;SDS011;1984;48.312;9.244;2023-09-12T01:40:00;17.03;;;6.50;;
3939;SDS011;1984;48.312;9.244;2023-09-12T01:42:30;12.33;;;6.07;;
3939;SDS011;1984;48.312;9.244;2023-09-12T01:45:00;9.33;;;6.23;;
3939;SDS011;1984;48.312;9.244;2023-09-12T01:47:27;12.97;;;6.60;;
3939;SDS011;1984;48.312;9.244;2023-09-12T01:49:55;10.77;;;6.13;;
3939;SDS011;1984;48.312;9.244;2023-09-12T01:52:22;16.10;;;6.43;;
3939;SDS011;1984;48.312;9.244;2023-09-12T01:54:49;10.27;;;6.67;;
3939;SDS011;1984;48.312;9.244;2023-09-12T01:57:16;15.10;;;6.43;;
3939;SDS011;1984;48.312;9.244;2023-09-12T01:59:45;13.93;;;6.63;;
3939;SDS011;1984;48.312;9.244;2023-09-12T02:02:11;12.13;;;5.60;;
3939;SDS011;1984;48.312;9.244;2023-09-12T02:04:37;9.77;;;6.30;;
3939;SDS011;1984;48.312;9.244;2023-09-12T02:07:02;11.63;;;6.13;;
3939;SDS011;1984;48.312;9.244;2023-09-12T02:09:28;15.83;;;6.40;;
3939;SDS011;1984;48.312;9.244;2023-09-12T02:11:54;10.33;;;5.97;;
3939;SDS011;1984;48.312;9.244;2023-09-12T02:14:19;10.10;;;5.97;;
3939;SDS011;1984;48.312;9.244;2023-09-12T02:16:45;9.17;;;5.67;;
3939;SDS011;1984;48.312;9.244;2023-09-12T02:19:10;7.13;;;5.23;;
3939;SDS011;1984;48.312;9.244;2023-09-12T02:21:36;9.27;;;5.43;;
3939;SDS011;1984;48.312;9.244;2023-09-12T02:24:01;9.13;;;5.57;;
3939;SDS011;1984;48.312;9.244;2023-09-12T02:26:27;10.50;;;6.50;;
3939;SDS011;1984;48.312;9.244;2023-09-12T02:28:52;6.03;;;4.87;;
3939;SDS011;1984;48.312;9.244;2023-09-12T02:31:18;12.80;;;6.17;;
3939;SDS011;1984;48.312;9.244;2023-09-12T02:33:43;12.67;;;6.33;;
3939;SDS011;1984;48.312;9.244;2023-09-12T02:36:10;10.07;;;5.30;;
3939;SDS011;1984;48.312;9.244;2023-09-12T02:38:35;9.20;;;5.43;;
3939;SDS011;1984;48.312;9.244;2023-09-12T02:41:01;5.47;;;4.90;;
3939;SDS011;1984;48.312;9.244;2023-09-12T02:43:27;16.43;;;6.30;;
3939;SDS011;1984;48.312;9.244;2023-09-12T02:45:53;9.80;;;5.10;;
3939;SDS011;1984;48.312;9.244;2023-09-12T02:48:19;8.40;;;5.80;;
3939;SDS011;1984;48.312;9.244;2023-09-12T02:50:44;8.90;;;5.23;;
3939;SDS011;1984;48.312;9.244;2023-09-12T02:53:10;9.07;;;5.87;;
3939;SDS011;1984;48.312;9.244;2023-09-12T02:55:39;11.87;;;4.83;;
3939;SDS011;1984;48.312;9.244;2023-09-12T02:58:05;12.23;;;5.70;;
3939;SDS011;1984;48.312;9.244;2023-09-12T03:00:31;15.93;;;6.67;;
3939;SDS011;1984;48.312;9.244;2023-09-12T03:02:56;11.67;;;5.33;;
3939;SDS011;1984;48.312;9.244;2023-09-12T03:05:22;9.10;;;6.13;;
3939;SDS011;1984;48.312;9.244;2023-09-12T03:07:47;8.10;;;5.33;;
3939;SDS011;1984;48.312;9.244;2023-09-12T03:10:13;15.57;;;6.07;;
3939;SDS011;1984;48.312;9.244;2023-09-12T03:12:39;9.53;;;6.43;;
3939;SDS011;1984;48.312;9.244;2023-09-12T03:15:05;11.73;;;6.23;;
3939;SDS011;1984;48.312;9.244;2023-09-12T03:17:31;10.27;;;6.40;;
3939;SDS011;1984;48.312;9.244;2023-09-12T03:19:57;17.90;;;6.47;;
3939;SDS011;1984;48.312;9.244;2023-09-12T03:22:22;9.60;;;6.90;;
3939;SDS011;1984;48.312;9.244;2023-09-12T03:24:49;11.17;;;6.40;;
3939;SDS011;1984;48.312;9.244;2023-09-12T03:27:14;6.27;;;5.20;;
3939;SDS011;1984;48.312;9.244;2023-09-12T03:29:40;8.50;;;6.20;;
3939;SDS011;1984;48.312;9.244;2023-09-12T03:32:05;10.83;;;6.00;;
3939;SDS011;1984;48.312;9.244;2023-09-12T03:34:34;9.40;;;6.20;;
3939;SDS011;1984;48.312;9.244;2023-09-12T03:37:00;9.30;;;6.00;;
3939;SDS011;1984;48.312;9.244;2023-09-12T03:39:25;13.60;;;7.30;;
3939;SDS011;1984;48.312;9.244;2023-09-12T03:41:51;14.70;;;6.57;;
3939;SDS011;1984;48.312;9.244;2023-09-12T03:44:16;14.13;;;7.47;;
3939;SDS011;1984;48.312;9.244;2023-09-12T03:46:43;14.87;;;7.57;;
3939;SDS011;1984;48.312;9.244;2023-09-12T03:49:08;14.13;;;5.80;;
3939;SDS011;1984;48.312;9.244;2023-09-12T03:51:34;10.57;;;6.40;;
3939;SDS011;1984;48.312;9.244;2023-09-12T03:54:00;15.87;;;6.20;;
3939;SDS011;1984;48.312;9.244;2023-09-12T03:56:25;15.63;;;7.37;;
3939;SDS011;1984;48.312;9.244;2023-09-12T03:58:51;9.80;;;6.03;;
3939;SDS011;1984;48.312;9.244;2023-09-12T04:01:16;14.23;;;6.37;;
3939;SDS011;1984;48.312;9.244;2023-09-12T04:03:42;13.60;;;6.20;;
3939;SDS011;1984;48.312;9.244;2023-09-12T04:06:09;11.47;;;6.67;;
3939;SDS011;1984;48.312;9.244;2023-09-12T04:08:34;13.80;;;5.70;;
3939;SDS011;1984;48.312;9.244;2023-09-12T04:11:00;9.00;;;6.10;;
3939;SDS011;1984;48.312;9.244;2023-09-12T04:13:25;10.07;;;6.63;;
3939;SDS011;1984;48.312;9.244;2023-09-12T04:15:51;11.40;;;5.70;;
3939;SDS011;1984;48.312;9.244;2023-09-12T04:18:16;10.47;;;6.27;;
3939;SDS011;1984;48.312;9.244;2023-09-12T04:20:42;7.67;;;5.27;;
3939;SDS011;1984;48.312;9.244;2023-09-12T04:23:07;8.93;;;5.60;;
3939;SDS011;1984;48.312;9.244;2023-09-12T04:25:33;8.60;;;4.87;;
3939;SDS011;1984;48.312;9.244;2023-09-12T04:27:58;10.40;;;6.17;;
3939;SDS011;1984;48.312;9.244;2023-09-12T04:30:24;22.10;;;6.87;;
3939;SDS011;1984;48.312;9.244;2023-09-12T04:32:49;7.20;;;5.87;;
3939;SDS011;1984;48.312;9.244;2023-09-12T04:35:15;9.00;;;6.20;;
3939;SDS011;1984;48.312;9.244;2023-09-12T04:37:41;8.07;;;6.13;;
3939;SDS011;1984;48.312;9.244;2023-09-12T04:40:06;8.50;;;6.30;;
3939;SDS011;1984;48.312;9.244;2023-09-12T04:42:33;8.63;;;5.40;;
3939;SDS011;1984;48.312;9.244;2023-09-12T04:44:59;11.17;;;6.10;;
3939;SDS011;1984;48.312;9.244;2023-09-12T04:47:24;9.17;;;5.40;;
3939;SDS011;1984;48.312;9.244;2023-09-12T04:49:50;15.10;;;6.90;;
3939;SDS011;1984;48.312;9.244;2023-09-12T04:52:15;11.27;;;5.77;;
3939;SDS011;1984;48.312;9.244;2023-09-12T04:54:41;11.47;;;6.40;;
3939;SDS011;1984;48.312;9.244;2023-09-12T04:57:07;12.10;;;6.17;;
3939;SDS011;1984;48.312;9.244;2023-09-12T04:59:33;11.27;;;6.63;;
3939;SDS011;1984;48.312;9.244;2023-09-12T05:01:58;10.63;;;5.73;;
3939;SDS011;1984;48.312;9.244;2023-09-12T05:04:24;12.40;;;5.80;;
3939;SDS011;1984;48.312;9.244;2023-09-12T05:06:49;9.87;;;6.20;;
3939;SDS011;1984;48.312;9.244;2023-09-12T05:09:15;9.43;;;5.17;;
3939;SDS011;1984;48.312;9.244;2023-09-12T05:11:41;10.43;;;6.30;;
3939;SDS011;1984;48.312;9.244;2023-09-12T05:14:06;11.27;;;6.03;;
3939;SDS011;1984;48.312;9.244;2023-09-12T05:16:32;10.87;;;6.10;;
3939;SDS011;1984;48.312;9.244;2023-09-12T05:18:58;9.47;;;5.77;;
3939;SDS011;1984;48.312;9.244;2023-09-12T05:21:23;14.20;;;6.00;;
3939;SDS011;1984;48.312;9.244;2023-09-12T05:23:49;21.43;;;6.10;;
3939;SDS011;1984;48.312;9.244;2023-09-12T05:26:14;12.70;;;6.07;;
3939;SDS011;1984;48.312;9.244;2023-09-12T05:28:40;10.17;;;6.70;;
3939;SDS011;1984;48.312;9.244;2023-09-12T05:31:06;11.50;;;5.80;;
3939;SDS011;1984;48.312;9.244;2023-09-12T05:33:31;8.70;;;6.60;;
3939;SDS011;1984;48.312;9.244;2023-09-12T05:35:57;8.13;;;6.10;;
3939;SDS011;1984;48.312;9.244;2023-09-12T05:38:23;11.43;;;6.33;;
3939;SDS011;1984;48.312;9.244;2023-09-12T05:40:48;9.23;;;6.60;;
3939;SDS011;1984;48.312;9.244;2023-09-12T05:43:15;6.73;;;5.17;;
3939;SDS011;1984;48.312;9.244;2023-09-12T05:45:41;5.90;;;5.30;;
3939;SDS011;1984;48.312;9.244;2023-09-12T05:48:07;5.80;;;5.20;;
3939;SDS011;1984;48.312;9.244;2023-09-12T05:50:34;8.30;;;5.30;;
3939;SDS011;1984;48.312;9.244;2023-09-12T05:53:00;12.00;;;5.97;;
3939;SDS011;1984;48.312;9.244;2023-09-12T05:55:25;11.20;;;6.73;;
3939;SDS011;1984;48.312;9.244;2023-09-12T05:57:51;9.50;;;6.70;;
3939;SDS011;1984;48.312;9.244;2023-09-12T06:00:17;7.03;;;5.67;;
3939;SDS011;1984;48.312;9.244;2023-09-12T06:02:43;8.83;;;5.17;;
3939;SDS011;1984;48.312;9.244;2023-09-12T06:05:09;10.17;;;6.10;;
3939;SDS011;1984;48.312;9.244;2023-09-12T06:07:35;13.13;;;6.10;;
3939;SDS011;1984;48.312;9.244;2023-09-12T06:10:01;12.33;;;6.77;;
3939;SDS011;1984;48.312;9.244;2023-09-12T06:12:28;14.20;;;5.97;;
3939;SDS011;1984;48.312;9.244;2023-09-12T06:14:53;10.80;;;6.53;;
3939;SDS011;1984;48.312;9.244;2023-09-12T06:17:20;8.30;;;6.60;;
3939;SDS011;1984;48.312;9.244;2023-09-12T06:19:47;16.80;;;7.97;;
3939;SDS011;1984;48.312;9.244;2023-09-12T06:22:14;16.07;;;8.03;;
3939;SDS011;1984;48.312;9.244;2023-09-12T06:24:40;19.97;;;8.87;;
3939;SDS011;1984;48.312;9.244;2023-09-12T06:27:05;12.90;;;8.63;;
3939;SDS011;1984;48.312;9.244;2023-09-12T06:29:31;13.17;;;8.50;;
3939;SDS011;1984;48.312;9.244;2023-09-12T06:31:57;30.73;;;7.80;;
3939;SDS011;1984;48.312;9.244;2023-09-12T06:34:22;12.23;;;7.53;;
3939;SDS011;1984;48.312;9.244;2023-09-12T06:36:48;12.27;;;8.40;;
3939;SDS011;1984;48.312;9.244;2023-09-12T06:39:13;13.23;;;8.60;;
3939;SDS011;1984;48.312;9.244;2023-09-12T06:41:39;15.33;;;8.70;;
3939;SDS011;1984;48.312;9.244;2023-09-12T06:44:04;16.00;;;7.07;;
3939;SDS011;1984;48.312;9.244;2023-09-12T06:46:32;16.43;;;9.10;;
3939;SDS011;1984;48.312;9.244;2023-09-12T06:49:01;24.63;;;8.67;;
3939;SDS011;1984;48.312;9.244;2023-09-12T06:51:27;11.90;;;7.73;;
3939;SDS011;1984;48.312;9.244;2023-09-12T06:53:52;13.20;;;8.77;;
3939;SDS011;1984;48.312;9.244;2023-09-12T06:56:18;11.80;;;8.23;;
3939;SDS011;1984;48.312;9.244;2023-09-12T06:58:43;18.53;;;10.83;;
3939;SDS011;1984;48.312;9.244;2023-09-12T07:01:09;19.60;;;9.47;;
3939;SDS011;1984;48.312;9.244;2023-09-12T07:03:35;12.30;;;8.43;;
3939;SDS011;1984;48.312;9.244;2023-09-12T07:06:01;18.07;;;8.77;;
3939;SDS011;1984;48.312;9.244;2023-09-12T07:08:29;15.10;;;7.30;;
3939;SDS011;1984;48.312;9.244;2023-09-12T07:10:55;9.97;;;7.20;;
3939;SDS011;1984;48.312;9.244;2023-09-12T07:13:22;12.93;;;7.53;;
3939;SDS011;1984;48.312;9.244;2023-09-12T07:15:49;11.53;;;7.27;;
3939;SDS011;1984;48.312;9.244;2023-09-12T07:18:17;11.90;;;6.80;;
3939;SDS011;1984;48.312;9.244;2023-09-12T07:20:44;8.93;;;6.50;;
3939;SDS011;1984;48.312;9.244;2023-09-12T07:23:10;13.60;;;7.27;;
3939;SDS011;1984;48.312;9.244;2023-09-12T07:25:39;13.37;;;7.90;;
3939;SDS011;1984;48.312;9.244;2023-09-12T07:28:06;12.17;;;6.80;;
3939;SDS011;1984;48.312;9.244;2023-09-12T07:30:33;14.07;;;7.00;;
3939;SDS011;1984;48.312;9.244;2023-09-12T07:32:58;17.30;;;7.37;;
3939;SDS011;1984;48.312;9.244;2023-09-12T07:35:24;9.33;;;7.10;;
3939;SDS011;1984;48.312;9.244;2023-09-12T07:37:50;13.47;;;8.43;;
3939;SDS011;1984;48.312;9.244;2023-09-12T07:40:15;12.53;;;8.13;;
3939;SDS011;1984;48.312;9.244;2023-09-12T07:42:41;20.10;;;7.73;;
3939;SDS011;1984;48.312;9.244;2023-09-12T07:45:07;17.83;;;8.77;;
3939;SDS011;1984;48.312;9.244;2023-09-12T07:47:33;12.30;;;8.20;;
3939;SDS011;1984;48.312;9.244;2023-09-12T07:49:58;11.43;;;7.50;;
3939;SDS011;1984;48.312;9.244;2023-09-12T07:52:25;12.67;;;6.87;;
3939;SDS011;1984;48.312;9.244;2023-09-12T07:54:51;8.40;;;6.40;;
3939;SDS011;1984;48.312;9.244;2023-09-12T07:57:22;10.40;;;7.03;;
3939;SDS011;1984;48.312;9.244;2023-09-12T07:59:47;7.50;;;6.27;;
3939;SDS011;1984;48.312;9.244;2023-09-12T08:02:13;7.63;;;6.83;;
3939;SDS011;1984;48.312;9.244;2023-09-12T08:04:39;12.23;;;6.30;;
3939;SDS011;1984;48.312;9.244;2023-09-12T08:07:04;10.37;;;6.30;;
3939;SDS011;1984;48.312;9.244;2023-09-12T08:12:19;7.38;;;5.63;;
3939;SDS011;1984;48.312;9.244;2023-09-12T08:14:47;7.65;;;5.47;;
3939;SDS011;1984;48.312;9.244;2023-09-12T08:17:12;6.10;;;5.60;;
3939;SDS011;1984;48.312;9.244;2023-09-12T08:19:39;5.80;;;5.30;;
3939;SDS011;1984;48.312;9.244;2023-09-12T08:22:05;9.82;;;5.97;;
3939;SDS011;1984;48.312;9.244;2023-09-12T08:24:32;7.28;;;5.65;;
3939;SDS011;1984;48.312;9.244;2023-09-12T08:26:58;11.77;;;6.00;;
3939;SDS011;1984;48.312;9.244;2023-09-12T08:29:24;6.97;;;5.80;;
3939;SDS011;1984;48.312;9.244;2023-09-12T08:31:49;11.30;;;4.97;;
3939;SDS011;1984;48.312;9.244;2023-09-12T08:34:15;7.85;;;5.28;;
3939;SDS011;1984;48.312;9.244;2023-09-12T08:36:40;5.95;;;5.22;;
3939;SDS011;1984;48.312;9.244;2023-09-12T08:39:06;5.40;;;4.90;;
3939;SDS011;1984;48.312;9.244;2023-09-12T08:41:33;6.43;;;5.22;;
3939;SDS011;1984;48.312;9.244;2023-09-12T08:43:59;6.82;;;4.65;;
3939;SDS011;1984;48.312;9.244;2023-09-12T08:46:26;5.55;;;5.00;;
3939;SDS011;1984;48.312;9.244;2023-09-12T08:48:52;5.22;;;4.80;;
3939;SDS011;1984;48.312;9.244;2023-09-12T08:51:23;6.82;;;4.82;;
3939;SDS011;1984;48.312;9.244;2023-09-12T08:53:51;5.10;;;4.60;;
3939;SDS011;1984;48.312;9.244;2023-09-12T08:56:18;8.45;;;4.80;;
3939;SDS011;1984;48.312;9.244;2023-09-12T08:58:44;6.57;;;4.88;;
3939;SDS011;1984;48.312;9.244;2023-09-12T09:01:10;5.90;;;4.45;;
3939;SDS011;1984;48.312;9.244;2023-09-12T09:03:39;5.90;;;4.82;;
3939;SDS011;1984;48.312;9.244;2023-09-12T09:06:08;5.32;;;4.70;;
3939;SDS011;1984;48.312;9.244;2023-09-12T09:08:33;9.35;;;5.60;;
3939;SDS011;1984;48.312;9.244;2023-09-12T09:11:00;5.40;;;4.70;;
3939;SDS011;1984;48.312;9.244;2023-09-12T09:13:31;6.78;;;5.63;;
3939;SDS011;1984;48.312;9.244;2023-09-12T09:16:10;5.65;;;5.15;;
3939;SDS011;1984;48.312;9.244;2023-09-12T09:18:51;7.38;;;5.78;;
3939;SDS011;1984;48.312;9.244;2023-09-12T09:21:23;9.38;;;4.68;;
3939;SDS011;1984;48.312;9.244;2023-09-12T09:23:55;4.85;;;4.50;;
3939;SDS011;1984;48.312;9.244;2023-09-12T09:26:21;7.75;;;4.93;;
3939;SDS011;1984;48.312;9.244;2023-09-12T09:29:02;6.47;;;5.10;;
3939;SDS011;1984;48.312;9.244;2023-09-12T09:31:33;6.50;;;4.60;;
3939;SDS011;1984;48.312;9.244;2023-09-12T09:33:59;6.05;;;5.40;;
3939;SDS011;1984;48.312;9.244;2023-09-12T09:36:26;7.65;;;4.75;;
3939;SDS011;1984;48.312;9.244;2023-09-12T09:38:52;11.18;;;4.28;;
3939;SDS011;1984;48.312;9.244;2023-09-12T09:41:20;5.43;;;4.93;;
3939;SDS011;1984;48.312;9.244;2023-09-12T09:43:48;7.38;;;4.93;;
3939;SDS011;1984;48.312;9.244;2023-09-12T09:46:15;5.13;;;4.63;;
3939;SDS011;1984;48.312;9.244;2023-09-12T09:48:42;6.60;;;4.68;;
3939;SDS011;1984;48.312;9.244;2023-09-12T09:51:14;6.13;;;4.75;;
3939;SDS011;1984;48.312;9.244;2023-09-12T09:53:40;12.50;;;5.07;;
3939;SDS011;1984;48.312;9.244;2023-09-12T09:58:33;7.88;;;4.15;;
3939;SDS011;1984;48.312;9.244;2023-09-12T10:00:59;4.80;;;4.40;;
3939;SDS011;1984;48.312;9.244;2023-09-12T10:03:25;6.82;;;4.25;;
3939;SDS011;1984;48.312;9.244;2023-09-12T10:05:53;5.93;;;4.40;;
3939;SDS011;1984;48.312;9.244;2023-09-12T10:08:21;6.35;;;5.72;;
3939;SDS011;1984;48.312;9.244;2023-09-12T10:10:49;5.20;;;4.05;;
3939;SDS011;1984;48.312;9.244;2023-09-12T10:13:16;5.93;;;4.90;;
3939;SDS011;1984;48.312;9.244;2023-09-12T10:15:43;5.03;;;4.50;;
3939;SDS011;1984;48.312;9.244;2023-09-12T10:18:10;6.28;;;4.82;;
3939;SDS011;1984;48.312;9.244;2023-09-12T10:20:45;5.18;;;4.78;;
3939;SDS011;1984;48.312;9.244;2023-09-12T10:23:18;5.00;;;4.60;;
3939;SDS011;1984;48.312;9.244;2023-09-12T10:25:48;5.65;;;5.00;;
3939;SDS011;1984;48.312;9.244;2023-09-12T10:28:15;5.13;;;4.45;;
3939;SDS011;1984;48.312;9.244;2023-09-12T10:30:42;5.55;;;4.63;;
3939;SDS011;1984;48.312;9.244;2023-09-12T10:33:08;8.70;;;4.40;;
3939;SDS011;1984;48.312;9.244;2023-09-12T10:35:35;6.72;;;4.55;;
3939;SDS011;1984;48.312;9.244;2023-09-12T10:38:03;7.60;;;4.63;;
3939;SDS011;1984;48.312;9.244;2023-09-12T10:40:33;5.47;;;4.20;;
3939;SDS011;1984;48.312;9.244;2023-09-12T10:43:01;6.72;;;6.18;;
3939;SDS011;1984;48.312;9.244;2023-09-12T10:45:31;5.03;;;4.53;;
3939;SDS011;1984;48.312;9.244;2023-09-12T10:48:00;5.13;;;4.63;;
3939;SDS011;1984;48.312;9.244;2023-09-12T10:50:26;8.98;;;5.13;;
3939;SDS011;1984;48.312;9.244;2023-09-12T10:52:52;10.07;;;4.68;;
3939;SDS011;1984;48.312;9.244;2023-09-12T10:55:18;12.20;;;4.85;;
3939;SDS011;1984;48.312;9.244;2023-09-12T10:58:02;5.63;;;4.30;;
3939;SDS011;1984;48.312;9.244;2023-09-12T11:00:29;5.78;;;4.55;;
3939;SDS011;1984;48.312;9.244;2023-09-12T11:02:58;8.45;;;4.70;;
3939;SDS011;1984;48.312;9.244;2023-09-12T11:07:59;7.55;;;4.95;;
3939;SDS011;1984;48.312;9.244;2023-09-12T11:10:25;5.25;;;4.10;;
3939;SDS011;1984;48.312;9.244;2023-09-12T11:12:52;5.40;;;4.60;;
3939;SDS011;1984;48.312;9.244;2023-09-12T11:15:20;9.40;;;5.60;;
3939;SDS011;1984;48.312;9.244;2023-09-12T11:18:01;7.05;;;4.47;;
3939;SDS011;1984;48.312;9.244;2023-09-12T11:23:28;8.00;;;4.72;;
3939;SDS011;1984;48.312;9.244;2023-09-12T11:26:07;5.22;;;4.45;;
3939;SDS011;1984;48.312;9.244;2023-09-12T11:28:35;4.78;;;3.83;;
3939;SDS011;1984;48.312;9.244;2023-09-12T11:31:01;9.70;;;4.28;;
3939;SDS011;1984;48.312;9.244;2023-09-12T11:33:26;7.60;;;4.20;;
3939;SDS011;1984;48.312;9.244;2023-09-12T11:35:53;5.18;;;4.63;;
3939;SDS011;1984;48.312;9.244;2023-09-12T11:38:27;5.28;;;4.78;;
3939;SDS011;1984;48.312;9.244;2023-09-12T11:40:54;6.65;;;4.75;;
3939;SDS011;1984;48.312;9.244;2023-09-12T11:43:23;5.38;;;4.13;;
3939;SDS011;1984;48.312;9.244;2023-09-12T11:45:50;6.47;;;5.68;;
3939;SDS011;1984;48.312;9.244;2023-09-12T11:48:19;6.80;;;5.88;;
3939;SDS011;1984;48.312;9.244;2023-09-12T11:50:54;7.68;;;4.97;;
3939;SDS011;1984;48.312;9.244;2023-09-12T11:53:22;6.18;;;5.60;;
3939;SDS011;1984;48.312;9.244;2023-09-12T11:55:51;6.30;;;5.68;;
3939;SDS011;1984;48.312;9.244;2023-09-12T11:58:19;5.78;;;5.28;;
3939;SDS011;1984;48.312;9.244;2023-09-12T12:03:12;7.17;;;4.97;;
3939;SDS011;1984;48.312;9.244;2023-09-12T12:05:38;5.10;;;4.60;;
3939;SDS011;1984;48.312;9.244;2023-09-12T12:08:06;6.27;;;4.90;;
3939;SDS011;1984;48.312;9.244;2023-09-12T12:10:33;7.63;;;4.72;;
3939;SDS011;1984;48.312;9.244;2023-09-12T12:12:58;6.80;;;5.70;;
3939;SDS011;1984;48.312;9.244;2023-09-12T12:15:24;7.25;;;5.05;;
3939;SDS011;1984;48.312;9.244;2023-09-12T12:17:54;17.08;;;5.32;;
3939;SDS011;1984;48.312;9.244;2023-09-12T12:20:20;5.10;;;4.60;;
3939;SDS011;1984;48.312;9.244;2023-09-12T12:22:46;5.30;;;4.90;;
3939;SDS011;1984;48.312;9.244;2023-09-12T12:25:13;5.57;;;5.07;;
3939;SDS011;1984;48.312;9.244;2023-09-12T12:27:40;6.73;;;5.63;;
3939;SDS011;1984;48.312;9.244;2023-09-12T12:30:07;10.20;;;5.23;;
3939;SDS011;1984;48.312;9.244;2023-09-12T12:32:36;6.00;;;5.38;;
3939;SDS011;1984;48.312;9.244;2023-09-12T12:35:16;9.33;;;5.50;;
3939;SDS011;1984;48.312;9.244;2023-09-12T12:37:42;6.20;;;5.10;;
3939;SDS011;1984;48.312;9.244;2023-09-12T12:40:11;6.73;;;5.53;;
3939;SDS011;1984;48.312;9.244;2023-09-12T12:42:38;6.47;;;5.33;;
3939;SDS011;1984;48.312;9.244;2023-09-12T12:45:11;6.00;;;5.40;;
3939;SDS011;1984;48.312;9.244;2023-09-12T12:47:38;6.77;;;5.57;;
3939;SDS011;1984;48.312;9.244;2023-09-12T12:50:07;6.20;;;5.60;;
3939;SDS011;1984;48.312;9.244;2023-09-12T12:52:35;5.17;;;4.73;;
3939;SDS011;1984;48.312;9.244;2023-09-12T12:55:06;6.43;;;4.80;;
3939;SDS011;1984;48.312;9.244;2023-09-12T12:57:36;8.90;;;5.63;;
3939;SDS011;1984;48.312;9.244;2023-09-12T13:00:04;5.53;;;5.03;;
3939;SDS011;1984;48.312;9.244;2023-09-12T13:02:33;6.30;;;4.77;;
3939;SDS011;1984;48.312;9.244;2023-09-12T13:04:59;7.60;;;5.17;;
3939;SDS011;1984;48.312;9.244;2023-09-12T13:07:24;6.73;;;4.60;;
3939;SDS011;1984;48.312;9.244;2023-09-12T13:09:50;5.60;;;5.10;;
3939;SDS011;1984;48.312;9.244;2023-09-12T13:12:15;5.83;;;5.17;;
3939;SDS011;1984;48.312;9.244;2023-09-12T13:14:42;9.20;;;5.10;;
3939;SDS011;1984;48.312;9.244;2023-09-12T13:17:09;7.20;;;5.87;;
3939;SDS011;1984;48.312;9.244;2023-09-12T13:19:34;6.40;;;5.43;;
3939;SDS011;1984;48.312;9.244;2023-09-12T13:22:00;6.37;;;5.53;;
3939;SDS011;1984;48.312;9.244;2023-09-12T13:24:25;6.77;;;5.53;;
3939;SDS011;1984;48.312;9.244;2023-09-12T13:26:51;7.07;;;5.97;;
3939;SDS011;1984;48.312;9.244;2023-09-12T13:29:18;6.60;;;5.70;;
3939;SDS011;1984;48.312;9.244;2023-09-12T13:31:44;11.23;;;6.60;;
3939;SDS011;1984;48.312;9.244;2023-09-12T13:34:10;6.60;;;6.00;;
3939;SDS011;1984;48.312;9.244;2023-09-12T13:36:35;10.10;;;6.00;;
3939;SDS011;1984;48.312;9.244;2023-09-12T13:39:01;9.13;;;6.57;;
3939;SDS011;1984;48.312;9.244;2023-09-12T13:41:27;9.57;;;6.70;;
3939;SDS011;1984;48.312;9.244;2023-09-12T13:43:53;8.17;;;6.87;;
3939;SDS011;1984;48.312;9.244;2023-09-12T13:46:18;8.83;;;6.00;;
3939;SDS011;1984;48.312;9.244;2023-09-12T13:48:44;6.17;;;5.57;;
3939;SDS011;1984;48.312;9.244;2023-09-12T13:51:09;6.07;;;5.20;;
3939;SDS011;1984;48.312;9.244;2023-09-12T13:53:35;6.77;;;5.77;;
3939;SDS011;1984;48.312;9.244;2023-09-12T13:56:00;11.07;;;5.57;;
3939;SDS011;1984;48.312;9.244;2023-09-12T13:58:27;8.30;;;5.33;;
3939;SDS011;1984;48.312;9.244;2023-09-12T14:00:52;6.23;;;5.63;;
3939;SDS011;1984;48.312;9.244;2023-09-12T14:03:18;8.90;;;5.30;;
3939;SDS011;1984;48.312;9.244;2023-09-12T14:05:43;5.57;;;5.07;;
3939;SDS011;1984;48.312;9.244;2023-09-12T14:08:09;5.90;;;4.80;;
3939;SDS011;1984;48.312;9.244;2023-09-12T14:10:35;6.00;;;5.40;;
3939;SDS011;1984;48.312;9.244;2023-09-12T14:13:01;7.50;;;5.47;;
3939;SDS011;1984;48.312;9.244;2023-09-12T14:15:26;12.80;;;5.20;;
3939;SDS011;1984;48.312;9.244;2023-09-12T14:17:52;8.70;;;5.83;;
3939;SDS011;1984;48.312;9.244;2023-09-12T14:20:17;6.60;;;6.00;;
3939;SDS011;1984;48.312;9.244;2023-09-12T14:22:44;7.73;;;5.40;;
3939;SDS011;1984;48.312;9.244;2023-09-12T14:25:10;8.13;;;5.80;;
3939;SDS011;1984;48.312;9.244;2023-09-12T14:27:41;11.13;;;6.47;;
3939;SDS011;1984;48.312;9.244;2023-09-12T14:30:08;12.03;;;5.97;;
3939;SDS011;1984;48.312;9.244;2023-09-12T14:32:34;15.23;;;5.83;;
3939;SDS011;1984;48.312;9.244;2023-09-12T14:35:00;11.93;;;6.30;;
3939;SDS011;1984;48.312;9.244;2023-09-12T14:37:25;7.50;;;5.50;;
3939;SDS011;1984;48.312;9.244;2023-09-12T14:39:52;10.20;;;6.20;;
3939;SDS011;1984;48.312;9.244;2023-09-12T14:42:19;6.13;;;5.53;;
3939;SDS011;1984;48.312;9.244;2023-09-12T14:44:44;9.20;;;5.93;;
3939;SDS011;1984;48.312;9.244;2023-09-12T14:47:10;8.33;;;5.70;;
3939;SDS011;1984;48.312;9.244;2023-09-12T14:49:35;8.60;;;5.77;;
3939;SDS011;1984;48.312;9.244;2023-09-12T14:52:01;9.40;;;7.23;;
3939;SDS011;1984;48.312;9.244;2023-09-12T14:54:26;6.63;;;5.97;;
3939;SDS011;1984;48.312;9.244;2023-09-12T14:56:52;12.20;;;6.87;;
3939;SDS011;1984;48.312;9.244;2023-09-12T14:59:17;9.50;;;6.13;;
3939;SDS011;1984;48.312;9.244;2023-09-12T15:01:43;9.53;;;6.17;;
3939;SDS011;1984;48.312;9.244;2023-09-12T15:04:09;16.93;;;6.43;;
3939;SDS011;1984;48.312;9.244;2023-09-12T15:06:36;16.57;;;6.93;;
3939;SDS011;1984;48.312;9.244;2023-09-12T15:09:02;13.70;;;6.47;;
3939;SDS011;1984;48.312;9.244;2023-09-12T15:11:27;7.40;;;6.23;;
3939;SDS011;1984;48.312;9.244;2023-09-12T15:13:53;10.33;;;6.93;;
3939;SDS011;1984;48.312;9.244;2023-09-12T15:16:18;12.83;;;6.80;;
3939;SDS011;1984;48.312;9.244;2023-09-12T15:18:45;10.80;;;7.30;;
3939;SDS011;1984;48.312;9.244;2023-09-12T15:21:10;11.80;;;6.43;;
3939;SDS011;1984;48.312;9.244;2023-09-12T15:23:36;12.93;;;6.97;;
3939;SDS011;1984;48.312;9.244;2023-09-12T15:26:02;10.80;;;6.70;;